Time;durP1;ratioP1;P1;durP2;ratioP2;P2;SDS_P1;SDS_P2;PMS_P1;PMS_P2;Temp;Humidity;BMP_temperature;BMP_pressure;BME280_temperature;BME280_humidity;BME280_pressure;Samples;Min_cycle;Max_cycle;Signal;HPM_P1;HPM_P2
2023/04/25 00:00:41;;;;;;;4.05;2.00;;;;;;;19.10;45.97;95659.38;4955301;28;20539;-57
2023/04/25 00:03:09;;;;;;;4.83;1.90;;;;;;;19.71;45.02;95660.50;4952685;28;20089;-60
2023/04/25 00:05:38;;;;;;;6.85;1.98;;;;;;;19.81;44.70;95660.00;4951643;28;20094;-54
2023/04/25 00:08:07;;;;;;;3.78;2.35;;;;;;;19.16;46.43;95661.16;4952382;28;20089;-59
2023/04/25 00:10:35;;;;;;;4.47;2.25;;;;;;;19.75;45.68;95661.72;4952424;28;20094;-57
2023/04/25 00:13:03;;;;;;;4.57;2.28;;;;;;;19.51;45.06;95658.00;4952649;28;20097;-59
2023/04/25 00:15:32;;;;;;;3.97;2.17;;;;;;;19.10;46.61;95662.06;4949360;28;21039;-56
2023/04/25 00:18:01;;;;;;;4.40;2.30;;;;;;;19.36;46.62;95662.88;4953414;28;20082;-58
2023/04/25 00:20:30;;;;;;;2.97;2.07;;;;;;;19.94;45.09;95657.19;4952246;28;20090;-57
2023/04/25 00:22:59;;;;;;;4.60;1.90;;;;;;;20.32;44.60;95661.47;4956731;28;21306;-58
2023/04/25 00:28:03;;;;;;;5.00;2.17;;;;;;;20.17;44.49;95669.09;4944498;28;20078;-53
2023/04/25 00:30:31;;;;;;;3.70;2.03;;;;;;;20.07;44.90;95665.06;4946649;28;20480;-57
2023/04/25 00:33:00;;;;;;;2.75;2.05;;;;;;;20.03;45.48;95661.19;4947383;28;20090;-59
2023/04/25 00:35:29;;;;;;;3.28;1.90;;;;;;;19.72;45.99;95664.81;4946950;28;20090;-56
2023/04/25 00:37:57;;;;;;;3.35;1.67;;;;;;;19.25;47.39;95671.59;4951784;28;20105;-57
2023/04/25 00:40:25;;;;;;;2.35;1.80;;;;;;;19.63;47.02;95666.16;4952219;28;20129;-57
2023/04/25 00:42:54;;;;;;;2.58;1.88;;;;;;;19.49;47.01;95668.09;4940958;28;20094;-56
2023/04/25 00:45:22;;;;;;;6.13;2.17;;;;;;;19.97;46.23;95664.75;4941066;28;20090;-57
2023/04/25 00:47:51;;;;;;;5.38;2.25;;;;;;;20.04;45.56;95668.19;4944690;28;20102;-59
2023/04/25 00:50:20;;;;;;;5.43;2.20;;;;;;;20.03;46.31;95668.41;4951862;28;20091;-59
2023/04/25 00:52:49;;;;;;;2.85;1.98;;;;;;;20.01;45.68;95657.91;4949957;28;20086;-60
2023/04/25 00:55:17;;;;;;;3.05;2.00;;;;;;;19.98;45.81;95646.84;4957116;28;20101;-56
2023/04/25 00:57:46;;;;;;;5.18;1.60;;;;;;;19.20;46.83;95649.03;4953764;28;20104;-60
2023/04/25 01:00:15;;;;;;;3.33;1.85;;;;;;;19.69;46.19;95646.53;4961468;28;20083;-59
2023/04/25 01:02:44;;;;;;;5.20;2.10;;;;;;;19.48;47.13;95645.06;4950966;28;20089;-60
2023/04/25 01:05:13;;;;;;;3.22;2.00;;;;;;;19.42;47.88;95648.63;4953211;28;20086;-57
2023/04/25 01:07:43;;;;;;;3.45;2.10;;;;;;;19.06;47.43;95644.78;4949936;28;20090;-55
2023/04/25 01:10:11;;;;;;;2.40;1.70;;;;;;;19.85;46.42;95650.47;4953662;28;20152;-56
2023/04/25 01:12:39;;;;;;;3.22;1.73;;;;;;;19.35;47.41;95647.88;4959617;28;20074;-56
2023/04/25 01:15:08;;;;;;;3.58;2.00;;;;;;;19.59;46.89;95646.19;4953226;28;20091;-58
2023/04/25 01:17:37;;;;;;;9.88;2.20;;;;;;;20.05;45.94;95643.03;4951405;28;20082;-59
2023/04/25 01:20:07;;;;;;;4.32;1.92;;;;;;;19.48;46.71;95653.09;4948114;28;20094;-55
2023/04/25 01:22:36;;;;;;;4.10;1.90;;;;;;;19.46;47.12;95652.50;4954895;28;20090;-55
2023/04/25 01:25:06;;;;;;;5.15;2.05;;;;;;;19.33;47.70;95649.94;4955019;28;20094;-59
2023/04/25 01:27:34;;;;;;;2.85;2.05;;;;;;;19.17;48.01;95652.13;4957235;28;20078;-56
2023/04/25 01:30:03;;;;;;;3.35;2.17;;;;;;;19.45;47.81;95650.84;4957560;28;20641;-60
2023/04/25 01:32:37;;;;;;;2.88;1.88;;;;;;;19.54;47.45;95648.69;4957990;28;20078;-57
2023/04/25 01:35:09;;;;;;;2.70;2.08;;;;;;;19.92;45.64;95645.88;4960072;28;20081;-55
2023/04/25 01:37:39;;;;;;;3.17;2.17;;;;;;;19.79;46.53;95641.50;4954776;28;20105;-57
2023/04/25 01:40:08;;;;;;;4.90;2.63;;;;;;;19.83;46.50;95637.34;4947956;28;20113;-58
2023/04/25 01:42:38;;;;;;;5.55;2.15;;;;;;;19.77;46.62;95637.41;4952521;28;20074;-59
2023/04/25 01:45:08;;;;;;;4.00;1.90;;;;;;;20.09;45.67;95630.84;4952228;28;20467;-59
2023/04/25 01:47:37;;;;;;;2.80;2.17;;;;;;;20.45;44.59;95631.03;4957564;28;21902;-61
2023/04/25 01:50:07;;;;;;;4.32;2.40;;;;;;;20.75;43.95;95623.84;4955624;28;20066;-58
2023/04/25 01:52:36;;;;;;;5.78;2.83;;;;;;;20.67;44.11;95626.81;4949440;28;20474;-58
2023/04/25 01:55:07;;;;;;;3.63;2.20;;;;;;;20.96;43.03;95619.78;4962075;28;20113;-59
2023/04/25 01:57:35;;;;;;;4.13;2.15;;;;;;;20.91;43.04;95618.84;4951088;28;20082;-58
2023/04/25 02:00:08;;;;;;;3.08;1.98;;;;;;;20.95;42.80;95620.81;4949641;28;20296;-56
2023/04/25 02:02:37;;;;;;;3.67;2.10;;;;;;;20.56;43.32;95633.78;4936668;28;20102;-60
2023/04/25 02:05:06;;;;;;;2.75;2.00;;;;;;;20.83;42.48;95620.00;4949444;28;20082;-57
2023/04/25 02:07:34;;;;;;;3.65;2.00;;;;;;;20.00;43.60;95628.72;4948744;28;20079;-56
2023/04/25 02:10:03;;;;;;;7.03;2.60;;;;;;;20.32;43.75;95619.44;4949059;28;20094;-60
2023/04/25 02:12:33;;;;;;;2.97;1.88;;;;;;;20.55;43.33;95621.44;4949583;28;20086;-55
2023/04/25 02:15:01;;;;;;;3.43;2.33;;;;;;;20.56;42.96;95628.41;4949880;28;20058;-61
2023/04/25 02:17:31;;;;;;;3.47;2.20;;;;;;;19.60;44.60;95637.13;4953499;28;20548;-59
2023/04/25 02:19:59;;;;;;;4.15;2.33;;;;;;;20.00;44.12;95631.38;4949805;28;20095;-53
2023/04/25 02:22:30;;;;;;;4.90;2.40;;;;;;;20.16;43.38;95628.09;4947034;28;20090;-58
2023/04/25 02:24:58;;;;;;;3.45;2.17;;;;;;;20.15;43.85;95618.44;4946664;28;22161;-62
2023/04/25 02:27:26;;;;;;;4.75;2.40;;;;;;;20.22;43.66;95619.16;4944706;28;20079;-54
2023/04/25 02:29:56;;;;;;;8.77;2.40;;;;;;;20.14;43.73;95616.81;4950349;28;20090;-59
2023/04/25 02:32:24;;;;;;;3.85;2.30;;;;;;;20.09;43.64;95606.75;4950061;28;20089;-60
2023/04/25 02:34:53;;;;;;;4.32;2.22;;;;;;;19.81;43.65;95622.53;4941798;28;20097;-60
2023/04/25 02:37:21;;;;;;;3.08;2.22;;;;;;;20.10;43.44;95627.13;4936587;28;20185;-56
2023/04/25 02:39:49;;;;;;;4.32;2.33;;;;;;;19.01;45.33;95627.81;4947664;28;20475;-57
2023/04/25 02:42:18;;;;;;;3.58;2.30;;;;;;;20.00;43.60;95616.16;4947512;28;20609;-55
2023/04/25 02:44:46;;;;;;;5.80;2.60;;;;;;;18.96;45.67;95610.56;4956830;28;20105;-58
2023/04/25 02:47:16;;;;;;;4.32;2.10;;;;;;;19.13;44.71;95618.03;4948798;28;20070;-55
2023/04/25 02:49:44;;;;;;;3.20;2.17;;;;;;;19.39;45.14;95616.97;4949292;28;20086;-61
2023/04/25 02:52:13;;;;;;;3.35;2.30;;;;;;;18.94;45.82;95612.63;4943673;28;20090;-62
2023/04/25 02:54:41;;;;;;;6.30;2.45;;;;;;;19.60;44.70;95605.84;4948208;28;20089;-60
2023/04/25 02:57:10;;;;;;;4.60;2.17;;;;;;;19.18;45.33;95602.16;4943912;28;20090;-60
2023/04/25 02:59:38;;;;;;;6.57;2.17;;;;;;;19.30;46.06;95604.91;4950450;28;20097;-60
2023/04/25 03:02:06;;;;;;;3.05;2.00;;;;;;;19.34;45.68;95611.47;4948307;28;20079;-59
2023/04/25 03:04:36;;;;;;;3.25;2.30;;;;;;;19.45;46.10;95616.09;4950844;28;20106;-57
2023/04/25 03:07:05;;;;;;;5.32;2.30;;;;;;;18.89;46.58;95614.31;4948605;28;20074;-57
2023/04/25 03:09:33;;;;;;;5.18;1.80;;;;;;;19.07;46.81;95611.72;4947046;28;20129;-61
2023/04/25 03:12:01;;;;;;;6.80;2.33;;;;;;;19.03;47.24;95607.00;4951399;28;20082;-57
2023/04/25 03:14:30;;;;;;;3.92;2.20;;;;;;;18.96;47.59;95594.53;4946419;28;20083;-58
2023/04/25 03:16:58;;;;;;;3.47;1.95;;;;;;;18.70;48.28;95592.03;4943430;28;20539;-61
2023/04/25 03:19:26;;;;;;;3.45;1.83;;;;;;;18.91;47.93;95591.69;4954389;28;20078;-57
2023/04/25 03:21:56;;;;;;;3.78;2.10;;;;;;;18.78;49.26;95601.66;4952260;28;20581;-58
2023/04/25 03:24:24;;;;;;;4.97;1.92;;;;;;;18.81;49.70;95601.22;4942565;28;20087;-58
2023/04/25 03:26:52;;;;;;;4.32;1.92;;;;;;;18.42;50.41;95601.25;4946339;28;20090;-54
2023/04/25 03:29:24;;;;;;;3.13;1.92;;;;;;;18.46;50.47;95596.31;4943298;28;20142;-59
2023/04/25 03:31:52;;;;;;;2.05;1.33;;;;;;;17.52;53.41;95605.72;4945238;28;20086;-57
2023/04/25 03:34:21;;;;;;;3.67;1.58;;;;;;;17.88;54.08;95604.41;4942157;28;20109;-58
2023/04/25 03:36:50;;;;;;;2.58;1.77;;;;;;;18.01;55.16;95602.50;4959964;28;20078;-55
2023/04/25 03:39:19;;;;;;;3.17;1.85;;;;;;;18.54;53.21;95589.88;4946638;28;20126;-57
2023/04/25 03:41:48;;;;;;;3.47;2.00;;;;;;;17.84;53.82;95585.34;4938648;28;20183;-58
2023/04/25 03:44:16;;;;;;;2.97;1.45;;;;;;;17.50;56.99;95589.91;4946823;28;20078;-53
2023/04/25 03:46:44;;;;;;;4.07;1.90;;;;;;;18.52;54.33;95576.75;4944325;28;20074;-57
2023/04/25 03:49:12;;;;;;;2.40;1.55;;;;;;;18.44;54.54;95587.69;4951946;28;20074;-56
2023/04/25 03:51:41;;;;;;;3.60;1.88;;;;;;;18.58;54.97;95583.91;4942322;28;20118;-55
2023/04/25 03:54:09;;;;;;;2.90;1.95;;;;;;;18.53;54.98;95593.59;4945281;28;20084;-58
2023/04/25 03:56:38;;;;;;;4.25;2.40;;;;;;;18.44;55.22;95596.53;4948239;28;20095;-59
2023/04/25 03:59:07;;;;;;;4.63;2.40;;;;;;;18.87;53.63;95595.03;4940339;28;20098;-58
2023/04/25 04:01:35;;;;;;;2.33;1.80;;;;;;;19.61;50.97;95585.25;4948328;28;20554;-56
2023/04/25 04:04:04;;;;;;;3.78;2.50;;;;;;;18.94;50.83;95585.91;4950618;28;20109;-56
2023/04/25 04:06:33;;;;;;;3.90;2.70;;;;;;;18.81;50.67;95593.22;4945982;28;20091;-56
2023/04/25 04:09:02;;;;;;;4.63;2.45;;;;;;;18.91;51.47;95591.69;4944690;28;20574;-55
2023/04/25 04:11:31;;;;;;;4.93;2.42;;;;;;;19.29;49.97;95590.75;4951832;28;20531;-54
2023/04/25 04:14:00;;;;;;;5.88;2.38;;;;;;;18.96;50.31;95586.53;4945169;28;20487;-58
2023/04/25 04:16:29;;;;;;;3.33;2.20;;;;;;;18.79;51.33;95596.13;4943158;28;20079;-59
2023/04/25 04:18:59;;;;;;;4.70;2.17;;;;;;;18.64;52.46;95601.72;4936798;28;20070;-55
2023/04/25 04:21:28;;;;;;;3.90;1.88;;;;;;;19.17;52.11;95600.53;4947928;28;20140;-61
2023/04/25 04:23:57;;;;;;;3.15;2.20;;;;;;;18.83;52.07;95597.31;4949325;28;20091;-60
2023/04/25 04:26:26;;;;;;;3.40;2.15;;;;;;;19.64;48.75;95585.66;4938250;28;20790;-56
2023/04/25 04:28:54;;;;;;;4.18;2.05;;;;;;;19.87;48.11;95589.53;4948581;28;20082;-59
2023/04/25 04:31:24;;;;;;;6.18;2.40;;;;;;;19.06;48.76;95595.88;4948752;28;20480;-56
2023/04/25 04:33:53;;;;;;;3.92;1.90;;;;;;;19.99;47.04;95589.59;4942569;28;20102;-52
2023/04/25 04:36:21;;;;;;;2.88;1.83;;;;;;;19.50;47.92;95594.03;4943572;28;20094;-55
2023/04/25 04:38:50;;;;;;;4.68;1.90;;;;;;;19.35;47.35;95589.88;4940558;28;20961;-57
2023/04/25 04:41:20;;;;;;;3.47;2.05;;;;;;;19.25;48.34;95594.09;4946599;28;20441;-57
2023/04/25 04:43:48;;;;;;;;;;;;;;;19.13;48.66;95604.66;4947102;28;20095;-54
2023/04/25 04:46:18;;;;;;;3.75;1.77;;;;;;;19.31;48.00;95609.25;4948948;28;19976;-54
2023/04/25 04:48:48;;;;;;;3.65;1.70;;;;;;;19.04;48.14;95601.47;4940771;28;20085;-59
2023/04/25 04:51:16;;;;;;;2.22;1.73;;;;;;;19.09;48.54;95606.13;4937895;28;20147;-59
2023/04/25 04:53:44;;;;;;;5.25;2.50;;;;;;;18.83;48.57;95604.50;4948733;28;20146;-61
2023/04/25 04:56:13;;;;;;;4.13;1.60;;;;;;;19.48;47.80;95596.94;4947235;28;20098;-55
2023/04/25 04:58:41;;;;;;;3.45;1.70;;;;;;;18.74;48.48;95601.28;4949250;28;20086;-56
2023/04/25 05:01:09;;;;;;;3.65;1.77;;;;;;;18.70;49.54;95606.19;4942523;28;20083;-59
2023/04/25 05:03:38;;;;;;;5.05;1.80;;;;;;;19.78;46.41;95605.06;4945652;28;20573;-56
2023/04/25 05:06:08;;;;;;;3.78;1.48;;;;;;;19.53;47.25;95597.09;4949760;28;20078;-57
2023/04/25 05:08:37;;;;;;;2.28;1.70;;;;;;;20.10;45.63;95588.84;4943998;28;20091;-59
2023/04/25 05:11:05;;;;;;;3.53;1.42;;;;;;;19.55;47.58;95597.69;4954985;28;20463;-57
2023/04/25 05:13:33;;;;;;;3.33;1.42;;;;;;;19.95;46.36;95591.09;4942710;28;20082;-60
2023/04/25 05:16:02;;;;;;;4.65;1.40;;;;;;;19.92;45.61;95592.34;4951087;28;20530;-61
2023/04/25 05:18:30;;;;;;;1.63;1.15;;;;;;;18.68;49.54;95599.44;4942498;28;20082;-58
2023/04/25 05:20:59;;;;;;;3.92;1.17;;;;;;;18.12;51.37;95595.66;4942536;28;20526;-59
2023/04/25 05:23:30;;;;;;;3.65;1.30;;;;;;;18.27;52.71;95606.88;4947515;28;20086;-57
2023/04/25 05:26:00;;;;;;;4.40;1.15;;;;;;;17.85;57.53;95607.47;4940369;28;20087;-58
2023/04/25 05:28:28;;;;;;;2.25;1.35;;;;;;;18.03;55.69;95589.78;4947081;28;20087;-54
2023/04/25 05:30:57;;;;;;;6.13;1.52;;;;;;;18.73;54.42;95588.97;4941826;28;20139;-57
2023/04/25 05:33:25;;;;;;;4.47;1.40;;;;;;;18.54;52.44;95585.34;4946478;28;20539;-58
2023/04/25 05:35:53;;;;;;;2.30;1.35;;;;;;;18.16;55.19;95588.88;4949348;28;20653;-56
2023/04/25 05:38:22;;;;;;;2.00;1.27;;;;;;;18.09;56.28;95585.41;4944550;28;20110;-55
2023/04/25 05:40:51;;;;;;;4.43;1.55;;;;;;;18.03;55.39;95580.91;4942090;28;20075;-58
2023/04/25 05:43:20;;;;;;;2.75;1.60;;;;;;;18.72;54.92;95590.81;4959512;28;20097;-54
2023/04/25 05:45:48;;;;;;;2.38;1.35;;;;;;;18.61;54.90;95585.31;4947979;28;20090;-56
2023/04/25 05:48:16;;;;;;;1.90;1.42;;;;;;;18.43;54.27;95586.88;4949793;28;20637;-60
2023/04/25 05:50:45;;;;;;;3.40;1.50;;;;;;;19.13;53.76;95599.31;4943462;28;20106;-60
2023/04/25 05:53:13;;;;;;;2.53;1.13;;;;;;;18.73;52.35;95589.78;4949129;28;20094;-58
2023/04/25 05:55:41;;;;;;;2.65;1.55;;;;;;;18.83;52.46;95591.16;4951479;28;20086;-58
2023/04/25 05:58:11;;;;;;;1.50;1.13;;;;;;;19.46;50.59;95582.97;4942692;28;20091;-56
2023/04/25 06:00:41;;;;;;;3.60;1.30;;;;;;;19.78;49.21;95586.34;4939933;28;20135;-57
2023/04/25 06:03:10;;;;;;;3.17;1.75;;;;;;;20.99;46.47;95581.81;4949496;28;20120;-55
2023/04/25 06:05:38;;;;;;;4.97;1.77;;;;;;;20.52;47.07;95588.94;4948724;28;20117;-56
2023/04/25 06:08:07;;;;;;;3.20;1.70;;;;;;;19.67;49.63;95595.13;4950713;28;20082;-57
2023/04/25 06:10:35;;;;;;;3.97;1.77;;;;;;;19.61;51.82;95596.81;4952802;28;20089;-56
2023/04/25 06:13:03;;;;;;;4.57;1.40;;;;;;;18.38;55.41;95600.06;4955170;28;20606;-58
2023/04/25 06:15:33;;;;;;;1.63;0.90;;;;;;;17.38;59.42;95612.06;4949909;28;20071;-60
2023/04/25 06:18:02;;;;;;;2.10;1.52;;;;;;;17.56;62.17;95610.41;4949838;28;20090;-55
2023/04/25 06:20:30;;;;;;;4.97;2.03;;;;;;;18.37;59.03;95610.94;4951251;28;20075;-56
2023/04/25 06:22:59;;;;;;;4.80;2.60;;;;;;;17.66;62.48;95612.66;4945585;28;20582;-59
2023/04/25 06:25:27;;;;;;;4.82;1.95;;;;;;;18.00;63.76;95613.38;4951721;28;20062;-56
2023/04/25 06:27:55;;;;;;;5.40;2.60;;;;;;;18.70;58.55;95608.06;4951153;28;20106;-59
2023/04/25 06:30:25;;;;;;;5.03;2.15;;;;;;;18.28;60.90;95610.38;4950614;28;20622;-58
2023/04/25 06:32:55;;;;;;;3.27;2.20;;;;;;;18.65;59.17;95613.22;4948491;28;20703;-58
2023/04/25 06:35:23;;;;;;;3.40;1.80;;;;;;;17.52;65.96;95616.38;4951318;28;20520;-55
2023/04/25 06:37:51;;;;;;;5.85;2.20;;;;;;;18.01;65.77;95609.69;4948125;28;20087;-59
2023/04/25 06:40:20;;;;;;;4.95;2.10;;;;;;;18.45;65.34;95613.38;4946713;28;20086;-56
2023/04/25 06:42:48;;;;;;;3.25;1.70;;;;;;;18.01;67.93;95615.00;4945933;28;20070;-56
2023/04/25 06:45:16;;;;;;;2.60;1.80;;;;;;;17.98;67.70;95616.25;4949934;28;21858;-58
2023/04/25 06:47:45;;;;;;;3.63;1.98;;;;;;;19.64;58.74;95611.59;4931761;28;20078;-56
2023/04/25 06:50:14;;;;;;;3.70;1.60;;;;;;;18.38;64.61;95615.25;4954169;28;20097;-58
2023/04/25 06:52:42;;;;;;;5.87;1.83;;;;;;;18.58;63.42;95615.13;4948957;28;20117;-57
2023/04/25 06:55:11;;;;;;;4.53;2.22;;;;;;;19.29;61.79;95619.34;4955804;28;20086;-57
2023/04/25 06:57:39;;;;;;;4.55;2.13;;;;;;;19.18;61.54;95624.34;4952733;28;20086;-57
2023/04/25 07:00:09;;;;;;;3.55;2.03;;;;;;;19.73;61.53;95606.78;4943311;28;20086;-57
2023/04/25 07:02:37;;;;;;;5.80;2.15;;;;;;;19.13;60.60;95618.03;4949989;28;20097;-60
2023/04/25 07:05:06;;;;;;;2.83;1.45;;;;;;;18.94;60.04;95619.84;4947538;28;20415;-58
2023/04/25 07:07:36;;;;;;;1.80;1.30;;;;;;;18.87;63.44;95621.75;4946690;28;20086;-56
2023/04/25 07:10:05;;;;;;;3.97;1.30;;;;;;;19.15;62.29;95610.63;4947841;28;20081;-59
2023/04/25 07:12:33;;;;;;;5.43;1.83;;;;;;;19.50;59.40;95608.22;4953227;28;20083;-58
2023/04/25 07:15:05;;;;;;;4.57;2.00;;;;;;;19.43;60.30;95612.81;4951509;28;20094;-60
2023/04/25 07:17:34;;;;;;;3.70;2.20;;;;;;;19.15;61.40;95613.28;4949135;28;20090;-58
2023/04/25 07:20:03;;;;;;;4.93;2.30;;;;;;;20.33;57.23;95599.66;4949718;28;20095;-60
2023/04/25 07:22:31;;;;;;;4.80;2.70;;;;;;;20.76;52.51;95590.63;4950177;28;20542;-58
2023/04/25 07:25:01;;;;;;;4.20;2.58;;;;;;;20.29;54.02;95590.44;4932428;28;20097;-62
2023/04/25 07:27:30;;;;;;;4.75;2.10;;;;;;;19.94;56.91;95602.84;4952846;28;20101;-59
2023/04/25 07:29:58;;;;;;;5.40;2.45;;;;;;;20.55;54.79;95596.50;4949257;28;20130;-58
2023/04/25 07:32:27;;;;;;;4.10;2.00;;;;;;;21.10;50.23;95596.28;4948427;28;20550;-57
2023/04/25 07:34:55;;;;;;;3.72;1.70;;;;;;;21.03;49.69;95591.03;4949793;28;20099;-61
2023/04/25 07:37:25;;;;;;;3.03;1.35;;;;;;;20.44;49.29;95600.75;4949095;28;20495;-57
2023/04/25 07:39:53;;;;;;;2.90;1.40;;;;;;;20.73;47.78;95598.31;4952538;28;20087;-58
2023/04/25 07:42:23;;;;;;;2.35;1.30;;;;;;;20.70;47.04;95599.56;4947763;28;20085;-60
2023/04/25 07:44:52;;;;;;;2.72;1.40;;;;;;;19.78;48.94;95609.59;4950718;28;20074;-59
2023/04/25 07:47:20;;;;;;;4.43;1.85;;;;;;;20.90;48.03;95587.75;4947803;28;20087;-59
2023/04/25 07:49:49;;;;;;;2.53;1.27;;;;;;;20.31;46.49;95598.25;4952504;28;20078;-61
2023/04/25 07:52:17;;;;;;;4.97;2.00;;;;;;;20.42;48.27;95591.31;4946621;28;20083;-60
2023/04/25 07:54:47;;;;;;;4.05;1.73;;;;;;;21.30;47.25;95593.22;4947796;28;20503;-60
2023/04/25 07:57:16;;;;;;;2.30;1.80;;;;;;;20.63;51.02;95604.22;4942666;28;20087;-60
2023/04/25 07:59:46;;;;;;;2.20;1.65;;;;;;;20.42;50.46;95594.81;4950751;28;20075;-59
2023/04/25 08:02:14;;;;;;;5.82;1.90;;;;;;;21.36;50.64;95586.97;4949324;28;20497;-56
2023/04/25 08:04:43;;;;;;;3.47;1.45;;;;;;;20.83;47.99;95593.19;4944747;28;20075;-60
2023/04/25 08:07:11;;;;;;;2.95;1.60;;;;;;;20.67;49.80;95586.63;4944663;28;20161;-58
2023/04/25 08:09:39;;;;;;;3.75;2.00;;;;;;;20.27;51.44;95587.19;4947281;28;20087;-56
2023/04/25 08:12:08;;;;;;;5.25;2.35;;;;;;;22.60;47.06;95575.00;4948661;28;20082;-56
2023/04/25 08:14:37;;;;;;;4.00;1.88;;;;;;;22.31;47.54;95579.59;4943875;28;20097;-56
2023/04/25 08:17:07;;;;;;;4.95;2.13;;;;;;;21.60;50.18;95579.72;4955478;28;20090;-54
2023/04/25 08:19:35;;;;;;;2.87;1.93;;;;;;;22.33;47.51;95580.94;4947381;28;20082;-53
2023/04/25 08:22:03;;;;;;;5.88;2.00;;;;;;;21.04;47.01;95594.50;4951191;28;21891;-60
2023/04/25 08:24:31;;;;;;;6.85;1.90;;;;;;;21.20;46.08;95587.66;4941082;28;20681;-55
2023/04/25 08:27:00;;;;;;;3.15;1.60;;;;;;;21.68;43.96;95579.38;4945906;28;20079;-56
2023/04/25 08:29:28;;;;;;;2.83;1.95;;;;;;;21.45;45.06;95579.41;4945287;28;20090;-57
2023/04/25 08:31:57;;;;;;;3.42;1.52;;;;;;;22.03;45.75;95581.97;4948862;28;20511;-59
2023/04/25 08:34:26;;;;;;;5.50;1.58;;;;;;;22.93;41.12;95582.31;4945949;28;20121;-59
2023/04/25 08:36:54;;;;;;;4.90;1.93;;;;;;;22.97;40.74;95581.56;4945651;28;20090;-60
2023/04/25 08:39:23;;;;;;;4.18;1.65;;;;;;;22.09;43.48;95585.56;4952230;28;20089;-57
2023/04/25 08:41:52;;;;;;;2.42;1.52;;;;;;;21.46;44.59;95584.53;4942899;28;20083;-58
2023/04/25 08:44:22;;;;;;;3.40;1.40;;;;;;;21.29;45.30;95581.69;4957043;28;20093;-58
2023/04/25 08:46:51;;;;;;;3.30;1.63;;;;;;;20.67;45.00;95592.00;4948932;28;20082;-57
2023/04/25 08:49:23;;;;;;;2.67;1.55;;;;;;;22.08;45.79;95578.56;4940644;28;20471;-57
2023/04/25 08:51:53;;;;;;;2.70;1.48;;;;;;;21.71;45.17;95591.50;4944765;28;20563;-57
2023/04/25 08:54:23;;;;;;;;;;;;;;;22.60;44.82;95581.19;4950248;28;20093;-61
2023/04/25 08:57:05;;;;;;;1.63;1.20;;;;;;;21.33;42.80;95590.09;4946487;28;19990;-56
2023/04/25 08:59:33;;;;;;;3.15;1.27;;;;;;;22.25;42.37;95584.84;4946193;28;20083;-59
2023/04/25 09:02:04;;;;;;;2.95;1.40;;;;;;;22.00;45.14;95587.00;4943878;28;20081;-57
2023/04/25 09:04:33;;;;;;;1.70;1.30;;;;;;;21.81;43.64;95594.38;4945107;28;20086;-58
2023/04/25 09:07:02;;;;;;;3.80;1.38;;;;;;;21.25;43.35;95585.91;4941089;28;20523;-59
2023/04/25 09:09:31;;;;;;;3.47;1.20;;;;;;;21.32;45.57;95583.09;4945913;28;20099;-58
2023/04/25 09:12:01;;;;;;;4.43;1.45;;;;;;;20.75;42.68;95593.50;4947336;28;20079;-59
2023/04/25 09:14:30;;;;;;;1.45;1.08;;;;;;;21.48;43.00;95587.78;4945091;28;20079;-58
2023/04/25 09:17:00;;;;;;;2.42;0.93;;;;;;;21.44;42.08;95583.13;4952722;28;20093;-60
2023/04/25 09:19:29;;;;;;;2.72;1.25;;;;;;;21.43;41.21;95587.66;4950035;28;20095;-59
2023/04/25 09:22:04;;;;;;;3.78;1.35;;;;;;;21.54;41.58;95586.88;4948029;28;20074;-58
2023/04/25 09:24:34;;;;;;;2.47;0.93;;;;;;;21.68;43.11;95591.94;4947247;28;20081;-55
2023/04/25 09:27:06;;;;;;;;;;;;;;;22.69;40.92;95584.31;4943186;28;20471;-58
2023/04/25 09:29:36;;;;;;;2.75;1.10;;;;;;;22.69;39.74;95590.50;4947393;28;20379;-57
2023/04/25 09:32:16;;;;;;;1.50;1.10;;;;;;;22.46;39.92;95587.91;4950954;28;20083;-57
2023/04/25 09:34:48;;;;;;;1.40;0.70;;;;;;;22.05;40.34;95585.22;4942978;28;20043;-59
2023/04/25 09:37:21;;;;;;;2.55;1.40;;;;;;;23.75;39.97;95579.00;4939892;28;20087;-59
2023/04/25 09:39:51;;;;;;;4.65;1.40;;;;;;;23.44;37.62;95588.50;4950611;28;20077;-55
2023/04/25 09:42:23;;;;;;;3.58;1.50;;;;;;;24.24;38.40;95576.34;4949177;28;20114;-60
2023/04/25 09:44:53;;;;;;;4.47;1.02;;;;;;;23.09;38.92;95592.28;4946041;28;20082;-60
2023/04/25 09:47:23;;;;;;;1.70;0.80;;;;;;;24.31;35.28;95578.84;4945611;28;20093;-60
2023/04/25 09:49:52;;;;;;;2.50;1.17;;;;;;;24.44;39.27;95581.19;4944286;28;20083;-63
2023/04/25 09:52:24;;;;;;;2.30;1.25;;;;;;;23.08;36.76;95596.00;4950687;28;20090;-60
2023/04/25 09:54:53;;;;;;;1.23;0.73;;;;;;;22.55;38.09;95591.03;4929050;28;20138;-60
2023/04/25 09:57:23;;;;;;;2.00;1.30;;;;;;;23.58;37.25;95583.56;4946403;28;20163;-60
2023/04/25 09:59:53;;;;;;;0.98;0.88;;;;;;;24.31;38.00;95576.16;4941034;28;20520;-60
2023/04/25 10:02:23;;;;;;;1.45;0.88;;;;;;;23.18;35.92;95587.28;4949998;28;20478;-59
2023/04/25 10:04:54;;;;;;;2.72;0.80;;;;;;;21.79;38.63;95596.50;4950395;28;20098;-58
2023/04/25 10:07:27;;;;;;;1.10;0.68;;;;;;;21.91;38.61;95596.47;4936945;28;20484;-57
2023/04/25 10:09:59;;;;;;;3.45;1.02;;;;;;;22.06;40.10;95596.81;4942420;28;20119;-54
2023/04/25 10:12:27;;;;;;;1.98;1.02;;;;;;;22.15;39.98;95592.69;4944668;28;20079;-56
2023/04/25 10:14:56;;;;;;;1.60;0.70;;;;;;;21.49;39.91;95599.34;4940113;28;20083;-57
2023/04/25 10:17:24;;;;;;;2.47;1.20;;;;;;;20.88;41.19;95597.84;4939722;28;20690;-56
2023/04/25 10:19:53;;;;;;;2.88;1.30;;;;;;;22.17;40.39;95592.47;4933464;28;20973;-59
2023/04/25 10:22:27;;;;;;;4.30;1.25;;;;;;;22.25;39.78;95586.72;4933192;28;20142;-59
2023/04/25 10:24:56;;;;;;;1.90;1.10;;;;;;;23.06;39.14;95578.50;4929772;28;20138;-59
2023/04/25 10:27:24;;;;;;;1.05;0.63;;;;;;;22.42;36.61;95581.41;4945259;28;20555;-59
2023/04/25 10:30:04;;;;;;;2.63;0.93;;;;;;;22.93;37.71;95577.75;4947223;28;20083;-59
2023/04/25 10:32:33;;;;;;;2.23;1.30;;;;;;;23.09;37.12;95588.75;4940997;28;21745;-53
2023/04/25 10:35:12;;;;;;;1.52;0.98;;;;;;;23.11;37.82;95582.06;4939955;28;20594;-59
2023/04/25 10:37:57;;;;;;;3.38;1.60;;;;;;;22.19;38.43;95580.41;4945672;28;20082;-60
2023/04/25 10:40:25;;;;;;;1.17;0.80;;;;;;;22.72;37.82;95592.69;4945456;28;20082;-55
2023/04/25 10:42:54;;;;;;;3.53;1.00;;;;;;;22.81;37.14;95586.91;4944812;28;20095;-62
2023/04/25 10:45:23;;;;;;;3.13;1.15;;;;;;;24.01;37.02;95580.13;4944939;28;20111;-57
2023/04/25 10:47:51;;;;;;;1.58;1.00;;;;;;;24.25;35.83;95571.78;4949216;28;20079;-56
2023/04/25 10:50:19;;;;;;;1.58;0.98;;;;;;;23.05;38.53;95591.09;4941632;28;20087;-56
2023/04/25 10:52:49;;;;;;;1.38;1.10;;;;;;;23.20;37.29;95591.38;4947613;28;20158;-59
2023/04/25 10:55:17;;;;;;;3.90;0.93;;;;;;;19.84;41.19;95625.59;4941468;28;20850;-59
2023/04/25 10:57:48;;;;;;;2.20;0.80;;;;;;;19.80;41.96;95635.09;4938980;28;20579;-60
2023/04/25 11:00:18;;;;;;;1.45;0.80;;;;;;;19.12;45.16;95629.75;4941089;28;20090;-59
2023/04/25 11:02:48;;;;;;;1.50;1.00;;;;;;;19.07;48.32;95634.94;4939761;28;20093;-60
2023/04/25 11:05:22;;;;;;;2.22;1.02;;;;;;;18.22;56.12;95652.06;4944868;28;20082;-59
2023/04/25 11:07:54;;;;;;;1.92;1.10;;;;;;;17.87;62.26;95661.44;4944621;28;20094;-58
2023/04/25 11:10:35;;;;;;;1.25;0.93;;;;;;;18.17;61.51;95673.25;4941085;28;20102;-59
2023/04/25 11:13:04;;;;;;;2.67;1.33;;;;;;;17.79;85.92;95689.97;4947549;28;20542;-60
2023/04/25 11:15:33;;;;;;;10.13;2.72;;;;;;;16.51;100.00;95691.91;4947299;28;21138;-59
2023/04/25 11:18:01;;;;;;;7.43;2.65;;;;;;;28.78;100.00;95806.66;4947322;28;20113;-60
2023/04/25 11:20:30;;;;;;;5.95;3.67;;;;;;;29.33;100.00;95870.00;4951907;28;20082;-62
2023/04/25 11:23:00;;;;;;;6.00;4.03;;;;;;;36.15;100.00;95855.91;4947339;28;20094;-62
2023/04/25 11:25:30;;;;;;;8.00;4.65;;;;;;;-146.19;100.00;58918.88;4952448;28;20066;-64
2023/04/25 11:28:00;;;;;;;5.47;3.63;;;;;;;24.60;100.00;95946.09;4946007;28;20086;-62
2023/04/25 11:30:30;;;;;;;8.02;3.40;;;;;;;23.21;100.00;95925.75;4946658;28;20087;-64
2023/04/25 11:32:58;;;;;;;5.90;3.13;;;;;;;21.39;100.00;95923.66;4947465;28;20073;-64
2023/04/25 11:35:27;;;;;;;3.03;1.75;;;;;;;19.97;100.00;95872.69;4944383;28;20122;-64
2023/04/25 11:37:55;;;;;;;4.97;2.38;;;;;;;20.54;100.00;95724.28;4944353;28;21016;-65
2023/04/25 11:40:25;;;;;;;2.50;1.40;;;;;;;20.78;94.58;95716.31;4944657;28;20086;-62
2023/04/25 11:42:53;;;;;;;4.78;1.67;;;;;;;20.78;83.04;95724.34;4939013;28;20098;-63
2023/04/25 11:45:24;;;;;;;2.60;1.73;;;;;;;20.94;76.64;95718.38;4947311;28;20083;-65